Terminal Aerodrome Forecast
Issued by NWS

Home | Current Version | Previous Version | Text Only | Print | Product List | Glossary On
Versions: 1 2 3 4 5 6 7 8 9 10 11 12 13
000
FTUS44 KEPZ 240524
TAFDMN
TAF
KDMN 240524Z 2406/2506 12009KT P6SM FEW070 BKN120 BKN250
      TEMPO 2407/2409 VRB20G30KT 6SM -TSRA BKN050CB OVC100
     FM240900 06008KT P6SM FEW070 BKN120 BKN200
     FM241600 23009KT P6SM SCT070 BKN120 BKN200
     FM250500 28008KT P6SM FEW060 BKN110 BKN200=

USA.gov is the U.S. government's official web portal to all federal, state and local government web resources and services.